Time,TemperatureF,DewpointF,PressureIn,WindDirection,WindDirectionDegrees,WindSpeedMPH,WindSpeedGustMPH,Humidity,HourlyPrecipIn,Conditions,Clouds,dailyrainin,SoftwareType,DateUTC
2013-01-15 00:00:00,33.3,31.2,30.23,East,89,0.0,0.0,92,0.09,,SKC,0.44,VWS V14.01,2013-01-15 05:00:00,
2013-01-15 00:05:00,33.3,31.2,30.22,East,89,0.0,0.0,92,0.08,,SKC,0.45,VWS V14.01,2013-01-15 05:05:00,
2013-01-15 00:10:00,33.3,31.2,30.21,East,89,0.0,0.0,92,0.08,,SKC,0.01,VWS V14.01,2013-01-15 05:10:00,
2013-01-15 00:15:00,33.4,31.3,30.21,East,89,0.0,0.0,92,0.07,,SKC,0.01,VWS V14.01,2013-01-15 05:15:00,
2013-01-15 00:20:00,33.4,31.3,30.21,East,89,0.0,0.0,92,0.07,,SKC,0.02,VWS V14.01,2013-01-15 05:20:00,
2013-01-15 00:25:00,33.4,31.3,30.19,East,89,0.0,0.0,92,0.08,,SKC,0.03,VWS V14.01,2013-01-15 05:25:00,
2013-01-15 00:30:00,33.5,31.4,30.18,East,89,0.0,0.0,92,0.07,,SKC,0.03,VWS V14.01,2013-01-15 05:30:00,
2013-01-15 00:35:00,33.5,31.4,30.18,East,89,0.0,0.0,92,0.07,,SKC,0.04,VWS V14.01,2013-01-15 05:35:00,
2013-01-15 00:40:00,33.5,31.4,30.19,East,89,0.0,0.0,92,0.07,,SKC,0.04,VWS V14.01,2013-01-15 05:40:00,
2013-01-15 00:45:00,33.6,31.5,30.20,East,89,0.0,0.0,92,0.06,,SKC,0.04,VWS V14.01,2013-01-15 05:45:00,
2013-01-15 00:50:00,33.5,31.4,30.20,ENE,60,0.0,2.0,92,0.06,,SKC,0.04,VWS V14.01,2013-01-15 05:50:00,
2013-01-15 00:55:00,33.5,31.4,30.19,NNE,20,0.0,2.0,92,0.06,,SKC,0.05,VWS V14.01,2013-01-15 05:55:00,
2013-01-15 01:00:00,33.3,31.2,30.21,NNE,26,0.0,0.0,92,0.06,,SKC,0.05,VWS V14.01,2013-01-15 06:00:00,
2013-01-15 01:05:00,33.2,31.4,30.20,NNE,19,1.0,6.0,93,0.05,,SKC,0.05,VWS V14.01,2013-01-15 06:05:00,
2013-01-15 01:10:00,33.1,31.3,30.20,NNE,24,1.0,4.0,93,0.04,,SKC,0.05,VWS V14.01,2013-01-15 06:10:00,
2013-01-15 01:15:00,33.0,31.2,30.21,NE,49,2.0,2.0,93,0.04,,SKC,0.05,VWS V14.01,2013-01-15 06:15:00,
2013-01-15 01:20:00,32.9,31.1,30.21,NE,42,5.0,5.0,93,0.03,,SKC,0.05,VWS V14.01,2013-01-15 06:20:00,
2013-01-15 01:25:00,32.8,31.0,30.21,ENE,65,4.0,8.0,93,0.02,,SKC,0.05,VWS V14.01,2013-01-15 06:25:00,
2013-01-15 01:30:00,32.8,31.0,30.21,NNE,30,2.0,2.0,93,0.02,,SKC,0.05,VWS V14.01,2013-01-15 06:30:00,
2013-01-15 01:35:00,32.7,30.9,30.22,ENE,71,5.0,7.0,93,0.01,,SKC,0.05,VWS V14.01,2013-01-15 06:35:00,
2013-01-15 01:40:00,32.6,30.8,30.22,NE,52,5.0,6.0,93,0.01,,SKC,0.05,VWS V14.01,2013-01-15 06:40:00,
2013-01-15 01:45:00,32.6,30.8,30.22,NE,51,2.0,2.0,93,0.01,,SKC,0.05,VWS V14.01,2013-01-15 06:45:00,
2013-01-15 01:50:00,32.6,30.8,30.21,NE,46,9.0,9.0,93,0.01,,SKC,0.05,VWS V14.01,2013-01-15 06:50:00,
2013-01-15 01:55:00,32.7,30.9,30.21,NNE,20,2.0,4.0,93,0.00,,SKC,0.05,VWS V14.01,2013-01-15 06:55:00,
2013-01-15 02:00:00,32.7,30.9,30.21,NE,38,0.0,0.0,93,0.00,,SKC,0.05,VWS V14.01,2013-01-15 07:00:00,
2013-01-15 02:05:00,32.8,31.0,30.22,NE,50,3.0,5.0,93,0.00,,SKC,0.05,VWS V14.01,2013-01-15 07:05:00,
2013-01-15 02:10:00,32.8,31.0,30.24,NNE,19,0.0,0.0,93,0.00,,SKC,0.05,VWS V14.01,2013-01-15 07:10:00,
2013-01-15 02:15:00,32.8,31.0,30.23,NNE,19,0.0,2.0,93,0.00,,SKC,0.05,VWS V14.01,2013-01-15 07:15:00,
2013-01-15 02:20:00,32.9,31.1,30.23,NNE,19,0.0,0.0,93,0.00,,SKC,0.05,VWS V14.01,2013-01-15 07:20:00,
2013-01-15 02:25:00,32.9,31.1,30.23,NE,37,0.0,1.0,93,0.00,,SKC,0.05,VWS V14.01,2013-01-15 07:25:00,
2013-01-15 02:30:00,33.0,31.2,30.22,NE,39,0.0,0.0,93,0.00,,SKC,0.05,VWS V14.01,2013-01-15 07:30:00,
2013-01-15 02:35:00,33.0,31.2,30.23,NE,37,0.0,0.0,93,0.00,,SKC,0.05,VWS V14.01,2013-01-15 07:35:00,
2013-01-15 02:40:00,33.1,31.3,30.23,NE,38,0.0,0.0,93,0.00,,SKC,0.05,VWS V14.01,2013-01-15 07:40:00,
2013-01-15 02:45:00,33.1,31.3,30.23,NE,37,0.0,0.0,93,0.00,,SKC,0.05,VWS V14.01,2013-01-15 07:45:00,
2013-01-15 02:50:00,33.1,31.3,30.22,NE,38,0.0,0.0,93,0.00,,SKC,0.05,VWS V14.01,2013-01-15 07:50:00,
2013-01-15 02:55:00,33.2,31.7,30.22,NE,38,0.0,0.0,94,0.00,,SKC,0.05,VWS V14.01,2013-01-15 07:55:00,
2013-01-15 03:00:00,33.2,31.7,30.22,ESE,122,3.0,3.0,94,0.00,,SKC,0.05,VWS V14.01,2013-01-15 08:00:00,
2013-01-15 03:05:00,33.2,31.4,30.22,ESE,122,0.0,0.0,93,0.00,,SKC,0.05,VWS V14.01,2013-01-15 08:05:00,
2013-01-15 03:10:00,33.3,31.5,30.22,ESE,122,0.0,0.0,93,0.00,,SKC,0.05,VWS V14.01,2013-01-15 08:10:00,
2013-01-15 03:15:00,33.3,31.8,30.22,ESE,122,0.0,0.0,94,0.00,,SKC,0.05,VWS V14.01,2013-01-15 08:15:00,
2013-01-15 03:20:00,33.4,31.9,30.22,ESE,122,0.0,0.0,94,0.00,,SKC,0.05,VWS V14.01,2013-01-15 08:20:00,
2013-01-15 03:25:00,33.5,32.0,30.22,ESE,122,0.0,0.0,94,0.00,,SKC,0.05,VWS V14.01,2013-01-15 08:25:00,
2013-01-15 03:30:00,33.5,32.0,30.22,ESE,122,0.0,0.0,94,0.00,,SKC,0.05,VWS V14.01,2013-01-15 08:30:00,
2013-01-15 03:35:00,33.6,32.1,30.22,ESE,122,0.0,0.0,94,0.00,,SKC,0.05,VWS V14.01,2013-01-15 08:35:00,
2013-01-15 03:40:00,33.7,32.2,30.22,ESE,122,0.0,0.0,94,0.00,,SKC,0.05,VWS V14.01,2013-01-15 08:40:00,
2013-01-15 03:45:00,33.7,32.2,30.22,ESE,122,0.0,0.0,94,0.00,,SKC,0.05,VWS V14.01,2013-01-15 08:45:00,
2013-01-15 03:50:00,33.7,32.2,30.22,ESE,122,0.0,0.0,94,0.00,,SKC,0.05,VWS V14.01,2013-01-15 08:50:00,
2013-01-15 03:55:00,33.7,32.2,30.22,ESE,122,0.0,0.0,94,0.00,,SKC,0.05,VWS V14.01,2013-01-15 08:55:00,
2013-01-15 04:00:00,33.7,32.2,30.21,ESE,122,0.0,0.0,94,0.00,,SKC,0.05,VWS V14.01,2013-01-15 09:00:00,
2013-01-15 04:05:00,33.7,32.2,30.21,ESE,122,0.0,0.0,94,0.00,,SKC,0.05,VWS V14.01,2013-01-15 09:05:00,
2013-01-15 04:10:00,33.7,32.2,30.21,ESE,122,0.0,0.0,94,0.00,,SKC,0.05,VWS V14.01,2013-01-15 09:10:00,
2013-01-15 04:15:00,33.7,32.2,30.21,ESE,122,0.0,0.0,94,0.00,,SKC,0.05,VWS V14.01,2013-01-15 09:15:00,
2013-01-15 04:20:00,33.7,32.2,30.21,ESE,122,0.0,0.0,94,0.00,,SKC,0.05,VWS V14.01,2013-01-15 09:20:00,
2013-01-15 04:25:00,33.7,32.2,30.21,ESE,122,0.0,0.0,94,0.00,,SKC,0.05,VWS V14.01,2013-01-15 09:25:00,
2013-01-15 04:30:00,33.7,32.2,30.21,ESE,122,0.0,0.0,94,0.00,,SKC,0.05,VWS V14.01,2013-01-15 09:30:00,
2013-01-15 04:35:00,33.7,32.2,30.21,ESE,122,0.0,0.0,94,0.00,,SKC,0.05,VWS V14.01,2013-01-15 09:35:00,
2013-01-15 04:40:00,33.7,32.2,30.21,ESE,122,0.0,0.0,94,0.00,,SKC,0.05,VWS V14.01,2013-01-15 09:40:00,
2013-01-15 04:45:00,33.7,32.2,30.22,ESE,122,0.0,0.0,94,0.00,,SKC,0.05,VWS V14.01,2013-01-15 09:45:00,
2013-01-15 04:50:00,33.7,32.2,30.21,ESE,122,0.0,0.0,94,0.00,,SKC,0.05,VWS V14.01,2013-01-15 09:50:00,
2013-01-15 04:55:00,33.7,32.2,30.21,ESE,122,0.0,0.0,94,0.00,,SKC,0.05,VWS V14.01,2013-01-15 09:55:00,
2013-01-15 05:00:00,33.7,32.2,30.21,ESE,122,0.0,0.0,94,0.00,,SKC,0.05,VWS V14.01,2013-01-15 10:00:00,
2013-01-15 05:05:00,33.7,32.2,30.21,ESE,122,0.0,0.0,94,0.00,,SKC,0.05,VWS V14.01,2013-01-15 10:05:00,
2013-01-15 05:10:00,33.7,32.2,30.21,ESE,122,0.0,0.0,94,0.00,,SKC,0.05,VWS V14.01,2013-01-15 10:10:00,
2013-01-15 05:15:00,33.7,32.2,30.21,ESE,122,0.0,0.0,94,0.00,,SKC,0.05,VWS V14.01,2013-01-15 10:15:00,
2013-01-15 05:20:00,33.6,32.1,30.21,ESE,122,0.0,0.0,94,0.00,,SKC,0.05,VWS V14.01,2013-01-15 10:20:00,
2013-01-15 05:25:00,33.6,32.1,30.21,ESE,122,0.0,0.0,94,0.00,,SKC,0.05,VWS V14.01,2013-01-15 10:25:00,
2013-01-15 05:30:00,33.6,32.1,30.21,ESE,122,0.0,0.0,94,0.00,,SKC,0.05,VWS V14.01,2013-01-15 10:30:00,
2013-01-15 05:35:00,33.6,32.1,30.21,ESE,122,0.0,0.0,94,0.00,,SKC,0.05,VWS V14.01,2013-01-15 10:35:00,
2013-01-15 05:40:00,33.6,32.1,30.22,ESE,122,0.0,0.0,94,0.00,,SKC,0.05,VWS V14.01,2013-01-15 10:40:00,
2013-01-15 05:45:00,33.7,32.2,30.21,ESE,122,0.0,0.0,94,0.00,,SKC,0.05,VWS V14.01,2013-01-15 10:45:00,
2013-01-15 05:50:00,33.7,32.2,30.22,ENE,71,0.0,0.0,94,0.00,,SKC,0.05,VWS V14.01,2013-01-15 10:50:00,
2013-01-15 05:55:00,33.7,32.2,30.22,ENE,71,0.0,0.0,94,0.00,,SKC,0.05,VWS V14.01,2013-01-15 10:55:00,
2013-01-15 06:00:00,33.7,32.2,30.22,ENE,71,0.0,0.0,94,0.00,,SKC,0.05,VWS V14.01,2013-01-15 11:00:00,
2013-01-15 06:05:00,33.7,32.2,30.22,ENE,71,0.0,0.0,94,0.00,,SKC,0.05,VWS V14.01,2013-01-15 11:05:00,
2013-01-15 06:10:00,33.6,32.1,30.22,ENE,71,0.0,0.0,94,0.00,,SKC,0.05,VWS V14.01,2013-01-15 11:10:00,
2013-01-15 06:15:00,33.7,32.2,30.22,ENE,71,0.0,2.0,94,0.00,,SKC,0.05,VWS V14.01,2013-01-15 11:15:00,
2013-01-15 06:20:00,33.7,32.2,30.22,ENE,71,0.0,0.0,94,0.00,,SKC,0.05,VWS V14.01,2013-01-15 11:20:00,
2013-01-15 06:25:00,33.7,32.2,30.23,ENE,71,0.0,0.0,94,0.00,,SKC,0.05,VWS V14.01,2013-01-15 11:25:00,
2013-01-15 06:30:00,33.7,32.2,30.23,ENE,71,0.0,2.0,94,0.00,,SKC,0.05,VWS V14.01,2013-01-15 11:30:00,
2013-01-15 06:35:00,33.7,32.2,30.23,NNE,17,0.0,2.0,94,0.00,,SKC,0.05,VWS V14.01,2013-01-15 11:35:00,
2013-01-15 06:40:00,33.7,32.2,30.23,NNE,17,0.0,0.0,94,0.00,,SKC,0.05,VWS V14.01,2013-01-15 11:40:00,
2013-01-15 06:45:00,33.7,32.2,30.23,NNE,17,0.0,0.0,94,0.00,,SKC,0.05,VWS V14.01,2013-01-15 11:45:00,
2013-01-15 06:50:00,33.6,32.1,30.24,NNE,17,0.0,0.0,94,0.00,,SKC,0.05,VWS V14.01,2013-01-15 11:50:00,
2013-01-15 06:55:00,33.6,32.1,30.24,NNE,17,0.0,0.0,94,0.00,,SKC,0.05,VWS V14.01,2013-01-15 11:55:00,
2013-01-15 07:00:00,33.6,32.1,30.24,NNE,17,0.0,0.0,94,0.00,,SKC,0.05,VWS V14.01,2013-01-15 12:00:00,
2013-01-15 07:05:00,33.7,32.2,30.24,NNE,17,0.0,0.0,94,0.00,,SKC,0.05,VWS V14.01,2013-01-15 12:05:00,
2013-01-15 07:10:00,33.7,32.2,30.25,NNE,17,0.0,0.0,94,0.00,,SKC,0.05,VWS V14.01,2013-01-15 12:10:00,
2013-01-15 07:15:00,33.7,32.2,30.26,NNE,17,0.0,0.0,94,0.00,,SKC,0.05,VWS V14.01,2013-01-15 12:15:00,
2013-01-15 07:20:00,33.7,32.2,30.26,NNE,17,0.0,0.0,94,0.00,,SKC,0.05,VWS V14.01,2013-01-15 12:20:00,
2013-01-15 07:25:00,33.7,32.2,30.26,NNE,17,0.0,0.0,94,0.00,,SKC,0.05,VWS V14.01,2013-01-15 12:25:00,
2013-01-15 07:30:00,33.8,32.3,30.26,NNE,17,0.0,0.0,94,0.01,,SKC,0.06,VWS V14.01,2013-01-15 12:30:00,
2013-01-15 07:35:00,33.8,32.3,30.26,NNE,17,0.0,0.0,94,0.01,,SKC,0.06,VWS V14.01,2013-01-15 12:35:00,
2013-01-15 07:40:00,33.8,32.3,30.27,NNE,17,0.0,2.0,94,0.01,,SKC,0.06,VWS V14.01,2013-01-15 12:40:00,
2013-01-15 07:45:00,33.8,32.3,30.27,NNE,17,0.0,0.0,94,0.01,,SKC,0.06,VWS V14.01,2013-01-15 12:45:00,
2013-01-15 07:50:00,33.8,32.3,30.28,NNE,17,0.0,0.0,94,0.01,,SKC,0.06,VWS V14.01,2013-01-15 12:50:00,
2013-01-15 07:55:00,33.8,32.3,30.27,NNE,17,1.0,3.0,94,0.01,,SKC,0.06,VWS V14.01,2013-01-15 12:55:00,
2013-01-15 08:00:00,33.8,32.3,30.28,NNE,17,0.0,0.0,94,0.01,,SKC,0.06,VWS V14.01,2013-01-15 13:00:00,
2013-01-15 08:05:00,33.8,32.3,30.28,NNE,17,0.0,0.0,94,0.01,,SKC,0.06,VWS V14.01,2013-01-15 13:05:00,
2013-01-15 08:10:00,33.9,32.4,30.28,NNE,17,1.0,2.0,94,0.01,,SKC,0.06,VWS V14.01,2013-01-15 13:10:00,
2013-01-15 08:15:00,33.9,32.4,30.27,NNE,25,1.0,3.0,94,0.01,,SKC,0.06,VWS V14.01,2013-01-15 13:15:00,
2013-01-15 08:20:00,33.9,32.4,30.29,NNE,22,0.0,0.0,94,0.01,,SKC,0.06,VWS V14.01,2013-01-15 13:20:00,
2013-01-15 08:25:00,33.9,32.4,30.28,NNE,22,0.0,0.0,94,0.01,,SKC,0.06,VWS V14.01,2013-01-15 13:25:00,
2013-01-15 08:30:00,33.9,32.4,30.30,NNE,22,0.0,0.0,94,0.00,,SKC,0.06,VWS V14.01,2013-01-15 13:30:00,
2013-01-15 08:35:00,33.9,32.4,30.30,NNE,22,0.0,0.0,94,0.00,,SKC,0.06,VWS V14.01,2013-01-15 13:35:00,
2013-01-15 08:40:00,34.0,32.5,30.30,NNE,22,2.0,2.0,94,0.00,,SKC,0.06,VWS V14.01,2013-01-15 13:40:00,
2013-01-15 08:45:00,34.0,32.7,30.31,NNE,22,1.0,1.0,95,0.00,,SKC,0.06,VWS V14.01,2013-01-15 13:45:00,
2013-01-15 08:50:00,34.1,32.8,30.31,NNE,22,0.0,0.0,95,0.00,,SKC,0.06,VWS V14.01,2013-01-15 13:50:00,
2013-01-15 08:55:00,34.1,32.8,30.31,NNE,22,0.0,0.0,95,0.01,,SKC,0.07,VWS V14.01,2013-01-15 13:55:00,
2013-01-15 09:00:00,34.1,32.8,30.32,NNE,22,0.0,0.0,95,0.01,,SKC,0.07,VWS V14.01,2013-01-15 14:00:00,
2013-01-15 09:05:00,34.1,32.8,30.32,NNE,22,0.0,0.0,95,0.01,,SKC,0.07,VWS V14.01,2013-01-15 14:05:00,
2013-01-15 09:10:00,34.1,32.8,30.32,NNE,22,0.0,0.0,95,0.01,,SKC,0.07,VWS V14.01,2013-01-15 14:10:00,
2013-01-15 09:15:00,34.1,32.8,30.32,NNE,22,0.0,0.0,95,0.01,,SKC,0.07,VWS V14.01,2013-01-15 14:15:00,
2013-01-15 09:20:00,34.2,32.9,30.32,NNE,22,0.0,0.0,95,0.01,,SKC,0.07,VWS V14.01,2013-01-15 14:20:00,
2013-01-15 09:25:00,34.2,32.9,30.32,NNE,19,0.0,0.0,95,0.01,,SKC,0.07,VWS V14.01,2013-01-15 14:25:00,
2013-01-15 09:30:00,34.2,32.9,30.33,NNE,19,0.0,0.0,95,0.01,,SKC,0.07,VWS V14.01,2013-01-15 14:30:00,
2013-01-15 09:35:00,34.1,32.8,30.33,NNE,19,0.0,0.0,95,0.01,,SKC,0.07,VWS V14.01,2013-01-15 14:35:00,
2013-01-15 09:40:00,34.1,32.8,30.32,NNE,19,0.0,1.0,95,0.01,,SKC,0.07,VWS V14.01,2013-01-15 14:40:00,
2013-01-15 09:45:00,34.2,32.9,30.32,NNE,19,0.0,0.0,95,0.01,,SKC,0.07,VWS V14.01,2013-01-15 14:45:00,
2013-01-15 09:50:00,34.1,32.8,30.32,NNE,19,0.0,0.0,95,0.01,,SKC,0.07,VWS V14.01,2013-01-15 14:50:00,
2013-01-15 09:55:00,34.1,32.8,30.32,NNE,17,0.0,0.0,95,0.01,,SKC,0.07,VWS V14.01,2013-01-15 14:55:00,
2013-01-15 10:00:00,34.1,32.8,30.32,NNE,17,0.0,0.0,95,0.00,,SKC,0.07,VWS V14.01,2013-01-15 15:00:00,
2013-01-15 10:05:00,34.1,32.8,30.32,NNE,17,0.0,0.0,95,0.00,,SKC,0.07,VWS V14.01,2013-01-15 15:05:00,
2013-01-15 10:10:00,34.1,32.8,30.32,WNW,303,0.0,0.0,95,0.00,,SKC,0.07,VWS V14.01,2013-01-15 15:10:00,
2013-01-15 10:15:00,34.2,32.9,30.31,North,355,1.0,2.0,95,0.00,,SKC,0.07,VWS V14.01,2013-01-15 15:15:00,
2013-01-15 10:20:00,34.1,32.8,30.31,North,11,0.0,0.0,95,0.00,,SKC,0.07,VWS V14.01,2013-01-15 15:20:00,
2013-01-15 10:25:00,34.1,32.8,30.33,North,355,0.0,1.0,95,0.00,,SKC,0.07,VWS V14.01,2013-01-15 15:25:00,
2013-01-15 10:30:00,34.0,32.7,30.32,NNW,331,0.0,0.0,95,0.00,,SKC,0.07,VWS V14.01,2013-01-15 15:30:00,
2013-01-15 10:35:00,33.8,32.5,30.31,NNE,20,1.0,1.0,95,0.00,,SKC,0.07,VWS V14.01,2013-01-15 15:35:00,
2013-01-15 10:40:00,33.7,32.4,30.32,NE,39,0.0,0.0,95,0.00,,SKC,0.07,VWS V14.01,2013-01-15 15:40:00,
2013-01-15 10:45:00,33.6,32.3,30.33,NNW,341,0.0,0.0,95,0.00,,SKC,0.07,VWS V14.01,2013-01-15 15:45:00,
2013-01-15 10:50:00,33.5,32.2,30.32,NE,46,0.0,0.0,95,0.00,,SKC,0.07,VWS V14.01,2013-01-15 15:50:00,
2013-01-15 10:55:00,33.5,32.2,30.32,NNE,20,1.0,4.0,95,0.00,,SKC,0.07,VWS V14.01,2013-01-15 15:55:00,
2013-01-15 11:00:00,33.4,32.1,30.31,NNE,28,1.0,4.0,95,0.00,,SKC,0.07,VWS V14.01,2013-01-15 16:00:00,
2013-01-15 11:05:00,33.4,32.1,30.33,NNE,20,3.0,3.0,95,0.00,,SKC,0.07,VWS V14.01,2013-01-15 16:05:00,
2013-01-15 11:10:00,33.3,32.0,30.33,North,351,0.0,0.0,95,0.01,,SKC,0.08,VWS V14.01,2013-01-15 16:10:00,
2013-01-15 11:15:00,33.4,32.1,30.31,North,351,0.0,0.0,95,0.01,,SKC,0.08,VWS V14.01,2013-01-15 16:15:00,
2013-01-15 11:20:00,33.4,32.1,30.30,NE,41,1.0,2.0,95,0.01,,SKC,0.08,VWS V14.01,2013-01-15 16:20:00,
2013-01-15 11:25:00,33.5,32.2,30.30,North,11,0.0,0.0,95,0.01,,SKC,0.08,VWS V14.01,2013-01-15 16:25:00,
2013-01-15 11:30:00,33.5,32.2,30.29,NNE,15,0.0,0.0,95,0.01,,SKC,0.08,VWS V14.01,2013-01-15 16:30:00,
2013-01-15 11:35:00,33.6,32.3,30.29,NNE,14,0.0,0.0,95,0.01,,SKC,0.08,VWS V14.01,2013-01-15 16:35:00,
2013-01-15 11:40:00,33.6,32.3,30.28,NNE,24,0.0,1.0,95,0.01,,SKC,0.08,VWS V14.01,2013-01-15 16:40:00,
2013-01-15 11:45:00,33.6,32.3,30.29,NNE,24,0.0,0.0,95,0.01,,SKC,0.08,VWS V14.01,2013-01-15 16:45:00,
2013-01-15 11:50:00,33.6,32.3,30.29,NNE,24,0.0,0.0,95,0.01,,SKC,0.08,VWS V14.01,2013-01-15 16:50:00,
2013-01-15 11:55:00,33.6,32.3,30.30,NNE,24,0.0,0.0,95,0.01,,SKC,0.08,VWS V14.01,2013-01-15 16:55:00,
2013-01-15 12:00:00,33.5,32.2,30.29,NNE,24,0.0,0.0,95,0.01,,SKC,0.08,VWS V14.01,2013-01-15 17:00:00,
2013-01-15 12:05:00,33.5,32.2,30.28,NNE,24,0.0,0.0,95,0.01,,SKC,0.08,VWS V14.01,2013-01-15 17:05:00,
2013-01-15 12:10:00,33.5,32.2,30.28,NNE,24,0.0,0.0,95,0.00,,SKC,0.08,VWS V14.01,2013-01-15 17:10:00,
2013-01-15 12:15:00,33.5,32.2,30.28,NNE,24,0.0,2.0,95,0.00,,SKC,0.08,VWS V14.01,2013-01-15 17:15:00,
2013-01-15 12:20:00,33.5,32.2,30.28,NNE,24,0.0,0.0,95,0.00,,SKC,0.08,VWS V14.01,2013-01-15 17:20:00,
2013-01-15 12:25:00,33.5,32.2,30.27,NNE,24,0.0,0.0,95,0.00,,SKC,0.08,VWS V14.01,2013-01-15 17:25:00,
2013-01-15 12:30:00,33.6,32.3,30.27,NNE,24,0.0,0.0,95,0.00,,SKC,0.08,VWS V14.01,2013-01-15 17:30:00,
2013-01-15 12:35:00,33.6,32.3,30.26,NNE,24,0.0,0.0,95,0.00,,SKC,0.08,VWS V14.01,2013-01-15 17:35:00,
2013-01-15 12:40:00,33.7,32.4,30.27,NNE,24,0.0,0.0,95,0.00,,SKC,0.08,VWS V14.01,2013-01-15 17:40:00,
2013-01-15 12:45:00,33.7,32.4,30.26,NNE,24,0.0,0.0,95,0.00,,SKC,0.08,VWS V14.01,2013-01-15 17:45:00,
2013-01-15 12:50:00,33.7,32.4,30.24,NNE,24,0.0,0.0,95,0.00,,SKC,0.08,VWS V14.01,2013-01-15 17:50:00,
2013-01-15 12:55:00,33.8,32.5,30.23,NNE,24,0.0,0.0,95,0.00,,SKC,0.08,VWS V14.01,2013-01-15 17:55:00,
2013-01-15 13:00:00,33.8,32.5,30.24,NNE,24,0.0,0.0,95,0.00,,SKC,0.08,VWS V14.01,2013-01-15 18:00:00,
2013-01-15 13:05:00,34.0,32.7,30.23,NNE,24,0.0,0.0,95,0.00,,SKC,0.08,VWS V14.01,2013-01-15 18:05:00,
2013-01-15 13:10:00,34.1,32.8,30.23,NNE,24,0.0,0.0,95,0.00,,SKC,0.08,VWS V14.01,2013-01-15 18:10:00,
2013-01-15 13:15:00,34.2,32.9,30.22,NNE,24,0.0,0.0,95,0.00,,SKC,0.08,VWS V14.01,2013-01-15 18:15:00,
2013-01-15 13:20:00,34.3,33.0,30.23,NNE,24,0.0,0.0,95,0.00,,SKC,0.08,VWS V14.01,2013-01-15 18:20:00,
2013-01-15 13:25:00,34.4,33.1,30.24,WSW,256,0.0,2.0,95,0.00,,SKC,0.08,VWS V14.01,2013-01-15 18:25:00,
2013-01-15 13:30:00,34.4,33.1,30.25,WSW,254,0.0,0.0,95,0.00,,SKC,0.08,VWS V14.01,2013-01-15 18:30:00,
2013-01-15 13:35:00,34.4,33.1,30.24,WSW,254,0.0,0.0,95,0.00,,SKC,0.08,VWS V14.01,2013-01-15 18:35:00,
2013-01-15 13:40:00,34.4,33.1,30.23,WSW,254,0.0,0.0,95,0.00,,SKC,0.08,VWS V14.01,2013-01-15 18:40:00,
2013-01-15 13:45:00,34.4,33.1,30.23,WSW,254,0.0,0.0,95,0.00,,SKC,0.08,VWS V14.01,2013-01-15 18:45:00,
2013-01-15 13:50:00,34.4,33.1,30.22,WSW,254,0.0,0.0,95,0.00,,SKC,0.08,VWS V14.01,2013-01-15 18:50:00,
2013-01-15 13:55:00,34.5,33.2,30.21,WSW,254,0.0,0.0,95,0.00,,SKC,0.08,VWS V14.01,2013-01-15 18:55:00,
2013-01-15 14:00:00,34.5,33.2,30.21,WSW,254,0.0,0.0,95,0.00,,SKC,0.08,VWS V14.01,2013-01-15 19:00:00,
2013-01-15 14:05:00,34.6,33.3,30.20,WSW,254,0.0,0.0,95,0.00,,SKC,0.08,VWS V14.01,2013-01-15 19:05:00,
2013-01-15 14:10:00,34.6,33.3,30.20,WSW,254,0.0,0.0,95,0.00,,SKC,0.08,VWS V14.01,2013-01-15 19:10:00,
2013-01-15 14:15:00,34.6,33.3,30.21,WSW,254,0.0,0.0,95,0.00,,SKC,0.08,VWS V14.01,2013-01-15 19:15:00,
2013-01-15 14:20:00,34.6,33.3,30.22,WSW,254,0.0,0.0,95,0.00,,SKC,0.08,VWS V14.01,2013-01-15 19:20:00,
2013-01-15 14:25:00,34.7,33.4,30.21,WSW,254,0.0,0.0,95,0.00,,SKC,0.08,VWS V14.01,2013-01-15 19:25:00,
2013-01-15 14:30:00,34.7,33.4,30.20,WSW,254,0.0,0.0,95,0.00,,SKC,0.08,VWS V14.01,2013-01-15 19:30:00,
2013-01-15 14:35:00,34.7,33.4,30.21,WSW,254,0.0,0.0,95,0.00,,SKC,0.08,VWS V14.01,2013-01-15 19:35:00,
2013-01-15 14:40:00,34.7,33.4,30.21,WSW,254,0.0,0.0,95,0.00,,SKC,0.08,VWS V14.01,2013-01-15 19:40:00,
2013-01-15 14:45:00,34.7,33.4,30.22,WSW,254,0.0,0.0,95,0.00,,SKC,0.08,VWS V14.01,2013-01-15 19:45:00,
2013-01-15 14:50:00,34.8,33.5,30.23,WSW,254,0.0,0.0,95,0.00,,SKC,0.08,VWS V14.01,2013-01-15 19:50:00,
2013-01-15 14:55:00,34.8,33.5,30.21,WSW,254,0.0,0.0,95,0.00,,SKC,0.08,VWS V14.01,2013-01-15 19:55:00,
2013-01-15 15:00:00,34.7,33.4,30.22,WSW,254,0.0,0.0,95,0.00,,SKC,0.08,VWS V14.01,2013-01-15 20:00:00,
2013-01-15 15:05:00,34.6,33.3,30.23,WSW,254,0.0,0.0,95,0.00,,SKC,0.08,VWS V14.01,2013-01-15 20:05:00,
2013-01-15 15:10:00,34.5,33.2,30.22,WSW,255,0.0,0.0,95,0.00,,SKC,0.08,VWS V14.01,2013-01-15 20:10:00,
2013-01-15 15:15:00,34.4,33.1,30.23,WSW,255,0.0,0.0,95,0.00,,SKC,0.08,VWS V14.01,2013-01-15 20:15:00,
2013-01-15 15:20:00,34.4,33.1,30.23,WSW,255,0.0,0.0,95,0.00,,SKC,0.08,VWS V14.01,2013-01-15 20:20:00,
2013-01-15 15:25:00,34.4,33.1,30.22,WSW,255,0.0,0.0,95,0.00,,SKC,0.08,VWS V14.01,2013-01-15 20:25:00,
2013-01-15 15:30:00,34.4,33.1,30.22,WSW,255,0.0,0.0,95,0.00,,SKC,0.08,VWS V14.01,2013-01-15 20:30:00,
2013-01-15 15:35:00,34.4,33.1,30.21,WSW,255,0.0,0.0,95,0.00,,SKC,0.08,VWS V14.01,2013-01-15 20:35:00,
2013-01-15 15:40:00,34.4,33.1,30.20,WSW,255,0.0,0.0,95,0.01,,SKC,0.09,VWS V14.01,2013-01-15 20:40:00,
2013-01-15 15:45:00,34.4,33.1,30.20,WSW,255,0.0,0.0,95,0.01,,SKC,0.09,VWS V14.01,2013-01-15 20:45:00,
2013-01-15 15:50:00,34.4,33.1,30.20,NW,311,0.0,0.0,95,0.01,,SKC,0.09,VWS V14.01,2013-01-15 20:50:00,
2013-01-15 15:55:00,34.4,33.1,30.21,NW,311,0.0,0.0,95,0.01,,SKC,0.09,VWS V14.01,2013-01-15 20:55:00,
2013-01-15 16:00:00,34.3,33.0,30.19,NW,311,0.0,1.0,95,0.01,,SKC,0.09,VWS V14.01,2013-01-15 21:00:00,
2013-01-15 16:05:00,34.3,33.0,30.20,NW,311,0.0,0.0,95,0.01,,SKC,0.09,VWS V14.01,2013-01-15 21:05:00,
2013-01-15 16:10:00,34.2,32.9,30.21,NW,311,0.0,0.0,95,0.01,,SKC,0.09,VWS V14.01,2013-01-15 21:10:00,
2013-01-15 16:15:00,34.2,32.9,30.20,NW,311,0.0,0.0,95,0.01,,SKC,0.09,VWS V14.01,2013-01-15 21:15:00,
2013-01-15 16:20:00,34.1,32.8,30.21,NNW,345,1.0,2.0,95,0.01,,SKC,0.09,VWS V14.01,2013-01-15 21:20:00,
2013-01-15 16:25:00,33.9,32.6,30.20,NNW,345,0.0,2.0,95,0.01,,SKC,0.09,VWS V14.01,2013-01-15 21:25:00,
2013-01-15 16:30:00,33.8,32.5,30.20,NNW,346,0.0,2.0,95,0.01,,SKC,0.09,VWS V14.01,2013-01-15 21:30:00,
2013-01-15 16:35:00,33.7,32.4,30.20,NNW,346,0.0,0.0,95,0.01,,SKC,0.09,VWS V14.01,2013-01-15 21:35:00,
2013-01-15 16:40:00,33.7,32.4,30.19,NNW,348,0.0,0.0,95,0.00,,SKC,0.09,VWS V14.01,2013-01-15 21:40:00,
2013-01-15 16:45:00,33.7,32.4,30.20,NNW,348,0.0,0.0,95,0.00,,SKC,0.09,VWS V14.01,2013-01-15 21:45:00,
2013-01-15 16:50:00,33.7,32.4,30.22,NNW,348,0.0,1.0,95,0.00,,SKC,0.09,VWS V14.01,2013-01-15 21:50:00,
2013-01-15 16:55:00,33.7,32.4,30.22,NNW,348,0.0,0.0,95,0.00,,SKC,0.09,VWS V14.01,2013-01-15 21:55:00,
2013-01-15 17:00:00,33.7,32.4,30.21,NNW,348,0.0,0.0,95,0.00,,SKC,0.09,VWS V14.01,2013-01-15 22:00:00,
2013-01-15 17:05:00,33.8,32.5,30.22,NNW,348,0.0,0.0,95,0.00,,SKC,0.09,VWS V14.01,2013-01-15 22:05:00,
2013-01-15 17:10:00,33.8,32.5,30.21,NNW,348,0.0,0.0,95,0.00,,SKC,0.09,VWS V14.01,2013-01-15 22:10:00,
2013-01-15 17:15:00,33.8,32.5,30.20,NNW,348,0.0,0.0,95,0.00,,SKC,0.09,VWS V14.01,2013-01-15 22:15:00,
2013-01-15 17:20:00,33.9,32.6,30.20,NNW,348,0.0,0.0,95,0.00,,SKC,0.09,VWS V14.01,2013-01-15 22:20:00,
2013-01-15 17:25:00,33.8,32.5,30.20,North,5,0.0,0.0,95,0.00,,SKC,0.09,VWS V14.01,2013-01-15 22:25:00,
2013-01-15 17:30:00,33.8,32.5,30.20,North,5,0.0,0.0,95,0.00,,SKC,0.09,VWS V14.01,2013-01-15 22:30:00,
2013-01-15 17:35:00,33.8,32.5,30.19,East,82,2.0,4.0,95,0.00,,SKC,0.09,VWS V14.01,2013-01-15 22:35:00,
2013-01-15 17:40:00,33.8,32.5,30.20,ENE,76,0.0,0.0,95,0.00,,SKC,0.09,VWS V14.01,2013-01-15 22:40:00,
2013-01-15 17:45:00,33.7,32.4,30.20,ENE,76,0.0,0.0,95,0.00,,SKC,0.09,VWS V14.01,2013-01-15 22:45:00,
2013-01-15 17:50:00,33.6,32.3,30.20,NNE,22,0.0,0.0,95,0.00,,SKC,0.09,VWS V14.01,2013-01-15 22:50:00,
2013-01-15 17:55:00,33.5,32.2,30.20,NNE,24,1.0,1.0,95,0.00,,SKC,0.09,VWS V14.01,2013-01-15 22:55:00,
2013-01-15 18:00:00,33.5,32.2,30.21,NNW,338,0.0,0.0,95,0.00,,SKC,0.09,VWS V14.01,2013-01-15 23:00:00,
2013-01-15 18:05:00,33.4,32.1,30.21,North,11,0.0,4.0,95,0.00,,SKC,0.09,VWS V14.01,2013-01-15 23:05:00,
2013-01-15 18:10:00,33.3,32.0,30.22,NE,42,4.0,4.0,95,0.00,,SKC,0.09,VWS V14.01,2013-01-15 23:10:00,
2013-01-15 18:15:00,33.3,32.0,30.22,NE,42,0.0,0.0,95,0.00,,SKC,0.09,VWS V14.01,2013-01-15 23:15:00,
2013-01-15 18:20:00,33.2,31.9,30.22,NE,42,0.0,0.0,95,0.00,,SKC,0.09,VWS V14.01,2013-01-15 23:20:00,
2013-01-15 18:25:00,33.2,31.9,30.23,NE,42,0.0,0.0,95,0.00,,SKC,0.09,VWS V14.01,2013-01-15 23:25:00,
2013-01-15 18:30:00,33.2,31.9,30.23,NE,40,0.0,1.0,95,0.00,,SKC,0.09,VWS V14.01,2013-01-15 23:30:00,
2013-01-15 18:35:00,33.2,31.9,30.23,NE,39,4.0,4.0,95,0.00,,SKC,0.09,VWS V14.01,2013-01-15 23:35:00,
2013-01-15 18:40:00,33.2,31.9,30.23,NE,39,0.0,0.0,95,0.01,,SKC,0.10,VWS V14.01,2013-01-15 23:40:00,
2013-01-15 18:45:00,33.1,31.8,30.23,NE,39,0.0,0.0,95,0.02,,SKC,0.11,VWS V14.01,2013-01-15 23:45:00,
2013-01-15 18:50:00,33.1,31.8,30.22,NE,39,1.0,4.0,95,0.02,,SKC,0.11,VWS V14.01,2013-01-15 23:50:00,
2013-01-15 18:55:00,33.1,31.8,30.22,NE,39,0.0,2.0,95,0.03,,SKC,0.12,VWS V14.01,2013-01-15 23:55:00,
2013-01-15 19:00:00,33.1,31.8,30.22,NE,39,0.0,1.0,95,0.04,,SKC,0.13,VWS V14.01,2013-01-16 00:00:00,
2013-01-15 19:05:00,33.0,31.7,30.22,North,5,2.0,2.0,95,0.04,,SKC,0.13,VWS V14.01,2013-01-16 00:05:00,
2013-01-15 19:10:00,33.0,31.7,30.22,North,5,2.0,2.0,95,0.05,,SKC,0.14,VWS V14.01,2013-01-16 00:10:00,
2013-01-15 19:15:00,33.0,31.7,30.22,North,5,0.0,0.0,95,0.06,,SKC,0.15,VWS V14.01,2013-01-16 00:15:00,
2013-01-15 19:20:00,33.0,31.7,30.22,North,5,0.0,0.0,95,0.06,,SKC,0.15,VWS V14.01,2013-01-16 00:20:00,
2013-01-15 19:25:00,32.9,31.6,30.22,North,5,0.0,0.0,95,0.07,,SKC,0.16,VWS V14.01,2013-01-16 00:25:00,
2013-01-15 19:30:00,33.0,31.7,30.21,North,5,0.0,0.0,95,0.08,,SKC,0.17,VWS V14.01,2013-01-16 00:30:00,
2013-01-15 19:35:00,33.0,31.7,30.22,North,5,0.0,0.0,95,0.08,,SKC,0.17,VWS V14.01,2013-01-16 00:35:00,
2013-01-15 19:40:00,33.0,31.7,30.21,North,5,0.0,0.0,95,0.08,,SKC,0.18,VWS V14.01,2013-01-16 00:40:00,
2013-01-15 19:45:00,32.9,31.6,30.21,North,5,0.0,0.0,95,0.08,,SKC,0.19,VWS V14.01,2013-01-16 00:45:00,
2013-01-15 19:50:00,32.9,31.6,30.21,North,5,0.0,0.0,95,0.08,,SKC,0.19,VWS V14.01,2013-01-16 00:50:00,
2013-01-15 19:55:00,32.9,31.6,30.20,North,5,0.0,0.0,95,0.08,,SKC,0.20,VWS V14.01,2013-01-16 00:55:00,
2013-01-15 20:00:00,32.9,31.6,30.21,North,5,0.0,0.0,95,0.08,,SKC,0.21,VWS V14.01,2013-01-16 01:00:00,
2013-01-15 20:05:00,32.9,31.6,30.20,North,5,0.0,0.0,95,0.09,,SKC,0.22,VWS V14.01,2013-01-16 01:05:00,
2013-01-15 20:10:00,32.9,31.6,30.20,North,5,0.0,0.0,95,0.09,,SKC,0.23,VWS V14.01,2013-01-16 01:10:00,
2013-01-15 20:15:00,32.9,31.6,30.20,North,5,0.0,0.0,95,0.09,,SKC,0.24,VWS V14.01,2013-01-16 01:15:00,
2013-01-15 20:20:00,32.8,31.5,30.19,North,5,0.0,0.0,95,0.10,,SKC,0.25,VWS V14.01,2013-01-16 01:20:00,
2013-01-15 20:25:00,32.7,31.4,30.19,North,5,0.0,0.0,95,0.10,,SKC,0.26,VWS V14.01,2013-01-16 01:25:00,
2013-01-15 20:30:00,32.6,31.3,30.18,North,5,0.0,0.0,95,0.10,,SKC,0.27,VWS V14.01,2013-01-16 01:30:00,
2013-01-15 20:35:00,32.5,31.2,30.18,North,360,0.0,0.0,95,0.11,,SKC,0.28,VWS V14.01,2013-01-16 01:35:00,
2013-01-15 20:40:00,32.5,31.2,30.19,North,360,0.0,0.0,95,0.11,,SKC,0.29,VWS V14.01,2013-01-16 01:40:00,
2013-01-15 20:45:00,32.4,31.1,30.19,North,360,0.0,0.0,95,0.11,,SKC,0.30,VWS V14.01,2013-01-16 01:45:00,
2013-01-15 20:50:00,32.3,31.0,30.18,North,360,0.0,0.0,95,0.12,,SKC,0.31,VWS V14.01,2013-01-16 01:50:00,
2013-01-15 20:55:00,32.2,30.9,30.18,North,360,0.0,0.0,95,0.12,,SKC,0.32,VWS V14.01,2013-01-16 01:55:00,
2013-01-15 21:00:00,32.2,30.9,30.17,West,278,0.0,0.0,95,0.11,,SKC,0.32,VWS V14.01,2013-01-16 02:00:00,
2013-01-15 21:05:00,32.1,30.8,30.17,West,278,0.0,0.0,95,0.12,,SKC,0.34,VWS V14.01,2013-01-16 02:05:00,
2013-01-15 21:10:00,32.1,30.8,30.18,West,278,0.0,0.0,95,0.14,,SKC,0.37,VWS V14.01,2013-01-16 02:10:00,
2013-01-15 21:15:00,32.0,30.7,30.18,NW,326,0.0,0.0,95,0.15,,SKC,0.39,VWS V14.01,2013-01-16 02:15:00,
2013-01-15 21:20:00,31.9,30.6,30.17,NNW,327,1.0,2.0,95,0.17,,SKC,0.42,VWS V14.01,2013-01-16 02:20:00,
2013-01-15 21:25:00,31.9,30.6,30.17,North,10,0.0,0.0,95,0.18,,SKC,0.44,VWS V14.01,2013-01-16 02:25:00,
2013-01-15 21:30:00,31.9,30.6,30.16,North,10,0.0,0.0,95,0.18,,SKC,0.45,VWS V14.01,2013-01-16 02:30:00,
2013-01-15 21:35:00,31.9,30.6,30.17,North,10,0.0,0.0,95,0.19,,SKC,0.47,VWS V14.01,2013-01-16 02:35:00,
2013-01-15 21:40:00,31.9,30.6,30.16,North,10,0.0,0.0,95,0.19,,SKC,0.48,VWS V14.01,2013-01-16 02:40:00,
2013-01-15 21:45:00,31.9,30.6,30.17,North,10,0.0,0.0,95,0.19,,SKC,0.49,VWS V14.01,2013-01-16 02:45:00,
2013-01-15 21:50:00,31.9,30.6,30.16,North,10,0.0,0.0,95,0.20,,SKC,0.50,VWS V14.01,2013-01-16 02:50:00,
2013-01-15 21:55:00,31.9,30.6,30.16,North,10,0.0,0.0,95,0.20,,SKC,0.52,VWS V14.01,2013-01-16 02:55:00,
2013-01-15 22:00:00,31.9,30.6,30.16,North,10,0.0,0.0,95,0.21,,SKC,0.53,VWS V14.01,2013-01-16 03:00:00,
2013-01-15 22:05:00,31.9,30.6,30.16,North,10,0.0,0.0,95,0.22,,SKC,0.55,VWS V14.01,2013-01-16 03:05:00,
2013-01-15 22:10:00,31.9,30.6,30.17,North,10,0.0,0.0,95,0.22,,SKC,0.58,VWS V14.01,2013-01-16 03:10:00,
2013-01-15 22:15:00,31.9,30.6,30.16,North,10,0.0,0.0,95,0.20,,SKC,0.59,VWS V14.01,2013-01-16 03:15:00,
2013-01-15 22:20:00,31.9,30.6,30.16,North,10,0.0,0.0,95,0.21,,SKC,0.63,VWS V14.01,2013-01-16 03:20:00,
2013-01-15 22:25:00,31.9,30.6,30.15,North,10,0.0,0.0,95,0.20,,SKC,0.64,VWS V14.01,2013-01-16 03:25:00,
2013-01-15 22:30:00,31.9,30.6,30.16,North,10,0.0,0.0,95,0.20,,SKC,0.65,VWS V14.01,2013-01-16 03:30:00,
2013-01-15 22:35:00,31.9,30.6,30.15,North,10,0.0,0.0,95,0.20,,SKC,0.67,VWS V14.01,2013-01-16 03:35:00,
2013-01-15 22:40:00,31.9,30.6,30.14,North,10,0.0,0.0,95,0.21,,SKC,0.68,VWS V14.01,2013-01-16 03:40:00,
2013-01-15 22:45:00,31.9,30.6,30.13,North,10,1.0,1.0,95,0.20,,SKC,0.69,VWS V14.01,2013-01-16 03:45:00,
2013-01-15 22:50:00,31.9,30.6,30.13,North,10,0.0,0.0,95,0.19,,SKC,0.69,VWS V14.01,2013-01-16 03:50:00,
2013-01-15 22:55:00,31.8,30.5,30.12,North,10,0.0,0.0,95,0.19,,SKC,0.70,VWS V14.01,2013-01-16 03:55:00,
2013-01-15 23:00:00,31.8,30.5,30.13,North,10,0.0,0.0,95,0.18,,SKC,0.71,VWS V14.01,2013-01-16 04:00:00,
2013-01-15 23:05:00,31.8,30.5,30.13,North,5,0.0,4.0,95,0.17,,SKC,0.72,VWS V14.01,2013-01-16 04:05:00,
2013-01-15 23:10:00,31.8,30.5,30.13,NNW,345,0.0,1.0,95,0.16,,SKC,0.73,VWS V14.01,2013-01-16 04:10:00,
2013-01-15 23:15:00,31.7,30.4,30.12,NNW,345,0.0,0.0,95,0.16,,SKC,0.75,VWS V14.01,2013-01-16 04:15:00,
2013-01-15 23:20:00,31.7,30.4,30.12,NNW,345,0.0,0.0,95,0.13,,SKC,0.76,VWS V14.01,2013-01-16 04:20:00,
2013-01-15 23:25:00,31.7,30.4,30.12,NNW,345,0.0,0.0,95,0.13,,SKC,0.77,VWS V14.01,2013-01-16 04:25:00,
2013-01-15 23:30:00,31.7,30.4,30.11,NNW,345,0.0,0.0,95,0.13,,SKC,0.78,VWS V14.01,2013-01-16 04:30:00,
2013-01-15 23:35:00,31.7,30.4,30.11,NNW,345,0.0,0.0,95,0.12,,SKC,0.79,VWS V14.01,2013-01-16 04:35:00,
2013-01-15 23:40:00,31.7,30.4,30.11,NNW,345,0.0,0.0,95,0.12,,SKC,0.80,VWS V14.01,2013-01-16 04:40:00,
2013-01-15 23:45:00,31.7,30.4,30.10,NNW,345,0.0,0.0,95,0.12,,SKC,0.81,VWS V14.01,2013-01-16 04:45:00,
2013-01-15 23:50:00,31.7,30.4,30.10,NNW,345,0.0,0.0,95,0.13,,SKC,0.82,VWS V14.01,2013-01-16 04:50:00,
2013-01-15 23:55:00,31.7,30.4,30.10,NNW,345,0.0,0.0,95,0.12,,SKC,0.82,VWS V14.01,2013-01-16 04:55:00,